Time;durP1;ratioP1;P1;durP2;ratioP2;P2;SDS_P1;SDS_P2;PMS_P1;PMS_P2;Temp;Humidity;BMP_temperature;BMP_pressure;BME280_temperature;BME280_humidity;BME280_pressure;Samples;Min_cycle;Max_cycle;Signal;HPM_P1;HPM_P2
2023/03/06 00:00:25;;;;;;;;;;;;;;;;;;10462053;28;19927;-72
2023/03/06 00:05:46;;;;;;;;;;;;;;;;;;10461470;28;20386;-72
2023/03/06 00:11:07;;;;;;;;;;;;;;;;;;10454322;28;19924;-72
2023/03/06 00:16:27;;;;;;;;;;;;;;;;;;10462646;28;19924;-72
2023/03/06 00:21:48;;;;;;;;;;;;;;;;;;10456044;28;20391;-72
2023/03/06 00:27:09;;;;;;;;;;;;;;;;;;10437095;28;19959;-72
2023/03/06 00:32:29;;;;;;;;;;;;;;;;;;10440805;28;19917;-72
2023/03/06 00:37:50;;;;;;;;;;;;;;;;;;10455020;28;19920;-72
2023/03/06 00:43:11;;;;;;;;;;;;;;;;;;10449222;28;19956;-72
2023/03/06 00:48:32;;;;;;;;;;;;;;;;;;10449295;28;19925;-72
2023/03/06 00:53:52;;;;;;;;;;;;;;;;;;10458492;28;19925;-72
2023/03/06 00:59:13;;;;;;;;;;;;;;;;;;10460086;28;20268;-72
2023/03/06 01:04:34;;;;;;;;;;;;;;;;;;10445955;28;19916;-72
2023/03/06 01:09:54;;;;;;;;;;;;;;;;;;10461746;28;20345;-72
2023/03/06 01:15:15;;;;;;;;;;;;;;;;;;10443166;28;20288;-71
2023/03/06 01:20:36;;;;;;;;;;;;;;;;;;10454728;28;19913;-72
2023/03/06 01:25:56;;;;;;;;;;;;;;;;;;10447754;28;19923;-72
2023/03/06 01:31:17;;;;;;;;;;;;;;;;;;10450490;28;19955;-72
2023/03/06 01:36:38;;;;;;;;;;;;;;;;;;10451872;28;19924;-72
2023/03/06 01:41:58;;;;;;;;;;;;;;;;;;10449626;28;19928;-72
2023/03/06 01:47:19;;;;;;;;;;;;;;;;;;10430930;28;19917;-72
2023/03/06 01:52:40;;;;;;;;;;;;;;;;;;10410859;28;20999;-71
2023/03/06 01:58:01;;;;;;;;;;;;;;;;;;10450747;28;19925;-72
2023/03/06 02:03:21;;;;;;;;;;;;;;;;;;10442217;28;20390;-72
2023/03/06 02:08:42;;;;;;;;;;;;;;;;;;10447398;28;19921;-73
2023/03/06 02:14:03;;;;;;;;;;;;;;;;;;10450470;28;19943;-72
2023/03/06 02:19:23;;;;;;;;;;;;;;;;;;10446134;28;19913;-72
2023/03/06 02:24:44;;;;;;;;;;;;;;;;;;10460850;28;21296;-72
2023/03/06 02:30:05;;;;;;;;;;;;;;;;;;10456179;28;19924;-72
2023/03/06 02:35:25;;;;;;;;;;;;;;;;;;10452309;28;19923;-72
2023/03/06 02:40:46;;;;;;;;;;;;;;;;;;10460901;28;19921;-72
2023/03/06 02:46:07;;;;;;;;;;;;;;;;;;10452909;28;20538;-72
2023/03/06 02:51:27;;;;;;;;;;;;;;;;;;10446358;28;19925;-72
2023/03/06 02:56:48;;;;;;;;;;;;;;;;;;10416186;28;19925;-72
2023/03/06 03:02:09;;;;;;;;;;;;;;;;;;10420639;28;20270;-72
2023/03/06 03:07:29;;;;;;;;;;;;;;;;;;10423974;28;19948;-72
2023/03/06 03:12:50;;;;;;;;;;;;;;;;;;10457318;28;20287;-72
2023/03/06 03:18:11;;;;;;;;;;;;;;;;;;10465358;28;19917;-72
2023/03/06 03:23:32;;;;;;;;;;;;;;;;;;10456565;28;20379;-72
2023/03/06 03:28:52;;;;;;;;;;;;;;;;;;10459165;28;20007;-72
2023/03/06 03:34:13;;;;;;;;;;;;;;;;;;10456822;28;19984;-72
2023/03/06 03:39:34;;;;;;;;;;;;;;;;;;10454962;28;19920;-72
2023/03/06 03:44:54;;;;;;;;;;;;;;;;;;10459188;28;19951;-72
2023/03/06 03:50:15;;;;;;;;;;;;;;;;;;10462669;28;19923;-72
2023/03/06 03:55:36;;;;;;;;;;;;;;;;;;10453670;28;19928;-73
2023/03/06 04:00:56;;;;;;;;;;;;;;;;;;10458114;28;19916;-73
2023/03/06 04:06:17;;;;;;;;;;;;;;;;;;10464403;28;20350;-73
2023/03/06 04:11:38;;;;;;;;;;;;;;;;;;10464267;28;19924;-73
2023/03/06 04:16:59;;;;;;;;;;;;;;;;;;10462001;28;20069;-73
2023/03/06 04:22:19;;;;;;;;;;;;;;;;;;10463325;28;19927;-73
2023/03/06 04:27:40;;;;;;;;;;;;;;;;;;10465151;28;19913;-74
2023/03/06 04:33:01;;;;;;;;;;;;;;;;;;10459544;28;19920;-73
2023/03/06 04:38:21;;;;;;;;;;;;;;;;;;10418447;28;19968;-73
2023/03/06 04:43:42;;;;;;;;;;;;;;;;;;10441953;28;19917;-73
2023/03/06 04:49:03;;;;;;;;;;;;;;;;;;10461473;28;20432;-73
2023/03/06 04:54:23;;;;;;;;;;;;;;;;;;10445561;28;20372;-74
2023/03/06 04:59:44;;;;;;;;;;;;;;;;;;10444609;28;19913;-74
2023/03/06 05:05:05;;;;;;;;;;;;;;;;;;10445040;28;19921;-74
2023/03/06 05:10:25;;;;;;;;;;;;;;;;;;10462898;28;19921;-72
2023/03/06 05:15:46;;;;;;;;;;;;;;;;;;10449437;28;19928;-72
2023/03/06 05:21:07;;;;;;;;;;;;;;;;;;10464287;28;20394;-72
2023/03/06 05:26:28;;;;;;;;;;;;;;;;;;10450473;28;19959;-72
2023/03/06 05:31:48;;;;;;;;;;;;;;;;;;10444576;28;19913;-72
2023/03/06 05:37:09;;;;;;;;;;;;;;;;;;10455737;28;19927;-72
2023/03/06 05:42:30;;;;;;;;;;;;;;;;;;10456181;28;19912;-72
2023/03/06 05:47:51;;;;;;;;;;;;;;;;;;10451666;28;19936;-72
2023/03/06 05:53:11;;;;;;;;;;;;;;;;;;10445170;28;19924;-72
2023/03/06 05:58:32;;;;;;;;;;;;;;;;;;10442780;28;19986;-72
2023/03/06 06:03:53;;;;;;;;;;;;;;;;;;10448902;28;19958;-72
2023/03/06 06:09:13;;;;;;;;;;;;;;;;;;10445889;28;19964;-73
2023/03/06 06:14:34;;;;;;;;;;;;;;;;;;10457188;28;19925;-72
2023/03/06 06:19:55;;;;;;;;;;;;;;;;;;10447074;28;19921;-72
2023/03/06 06:25:16;;;;;;;;;;;;;;;;;;10445427;28;19921;-72
2023/03/06 06:30:36;;;;;;;;;;;;;;;;;;10444104;28;19913;-72
2023/03/06 06:35:57;;;;;;;;;;;;;;;;;;10453201;28;19920;-74
2023/03/06 06:41:18;;;;;;;;;;;;;;;;;;10451991;28;20283;-74
2023/03/06 06:46:38;;;;;;;;;;;;;;;;;;10444544;28;19920;-74
2023/03/06 06:51:59;;;;;;;;;;;;;;;;;;10463875;28;19951;-74
2023/03/06 06:57:20;;;;;;;;;;;;;;;;;;10462981;28;19925;-74
2023/03/06 07:02:41;;;;;;;;;;;;;;;;;;10453207;28;20014;-74
2023/03/06 07:08:02;;;;;;;;;;;;;;;;;;10469497;28;19925;-74
2023/03/06 07:13:22;;;;;;;;;;;;;;;;;;10458486;28;19920;-74
2023/03/06 07:18:43;;;;;;;;;;;;;;;;;;10459154;28;19924;-74
2023/03/06 07:24:04;;;;;;;;;;;;;;;;;;10465083;28;19928;-74
2023/03/06 07:29:24;;;;;;;;;;;;;;;;;;10464869;28;19913;-74
2023/03/06 07:34:45;;;;;;;;;;;;;;;;;;10472833;28;19916;-74
2023/03/06 07:40:08;;;;;;;;;;;;;;;;;;10434336;28;19920;-74
2023/03/06 07:45:28;;;;;;;;;;;;;;;;;;10448751;28;19912;-75
2023/03/06 07:50:49;;;;;;;;;;;;;;;;;;10447720;28;19920;-74
2023/03/06 07:56:10;;;;;;;;;;;;;;;;;;10452055;28;19925;-75
2023/03/06 08:01:31;;;;;;;;;;;;;;;;;;10453845;28;19921;-75
2023/03/06 08:06:56;;;;;;;;;;;;;;;;;;10444153;28;19921;-75
2023/03/06 08:12:16;;;;;;;;;;;;;;;;;;10449526;28;19920;-75
2023/03/06 08:17:37;;;;;;;;;;;;;;;;;;10450801;28;19917;-75
2023/03/06 08:22:58;;;;;;;;;;;;;;;;;;10452584;28;19967;-76
2023/03/06 08:28:19;;;;;;;;;;;;;;;;;;10463762;28;19928;-76
2023/03/06 08:33:39;;;;;;;;;;;;;;;;;;10448295;28;20275;-77
2023/03/06 08:39:00;;;;;;;;;;;;;;;;;;10479459;28;19959;-76
2023/03/06 08:44:21;;;;;;;;;;;;;;;;;;10463171;28;19952;-76
2023/03/06 08:49:41;;;;;;;;;;;;;;;;;;10445434;28;19924;-76
2023/03/06 08:55:02;;;;;;;;;;;;;;;;;;10467828;28;20505;-76
2023/03/06 09:00:23;;;;;;;;;;;;;;;;;;10444845;28;19924;-78
2023/03/06 09:05:43;;;;;;;;;;;;;;;;;;10456153;28;19912;-78
2023/03/06 09:11:04;;;;;;;;;;;;;;;;;;10453531;28;19920;-80
2023/03/06 09:16:25;;;;;;;;;;;;;;;;;;10465321;28;20665;-75
2023/03/06 09:21:47;;;;;;;;;;;;;;;;;;10485134;28;19908;-77
2023/03/06 09:27:07;;;;;;;;;;;;;;;;;;10468999;28;19917;-79
2023/03/06 09:32:28;;;;;;;;;;;;;;;;;;10463496;28;19908;-79
2023/03/06 09:37:49;;;;;;;;;;;;;;;;;;10472759;28;19924;-80
2023/03/06 09:43:09;;;;;;;;;;;;;;;;;;10451411;28;19912;-79
2023/03/06 09:48:30;;;;;;;;;;;;;;;;;;10423667;28;19921;-82
2023/03/06 09:53:51;;;;;;;;;;;;;;;;;;10450560;28;19917;-80
2023/03/06 09:59:12;;;;;;;;;;;;;;;;;;10453494;28;19924;-81
2023/03/06 10:04:34;;;;;;;;;;;;;;;;;;10465882;28;20205;-77
2023/03/06 10:09:55;;;;;;;;;;;;;;;;;;10429767;28;19928;-78
2023/03/06 10:15:16;;;;;;;;;;;;;;;;;;10436593;28;20379;-78
2023/03/06 10:20:37;;;;;;;;;;;;;;;;;;10455899;28;19921;-78
2023/03/06 10:25:57;;;;;;;;;;;;;;;;;;10464619;28;19927;-80
2023/03/06 10:31:18;;;;;;;;;;;;;;;;;;10452823;28;19912;-80
2023/03/06 10:36:39;;;;;;;;;;;;;;;;;;10458515;28;19920;-79
2023/03/06 10:42:00;;;;;;;;;;;;;;;;;;10472884;28;19919;-79
2023/03/06 10:47:20;;;;;;;;;;;;;;;;;;10470959;28;19921;-80
2023/03/06 10:52:41;;;;;;;;;;;;;;;;;;10476170;28;19951;-79
2023/03/06 10:58:02;;;;;;;;;;;;;;;;;;10471171;28;19917;-80
2023/03/06 11:03:22;;;;;;;;;;;;;;;;;;10424333;28;19967;-80
2023/03/06 11:08:43;;;;;;;;;;;;;;;;;;10445617;28;20331;-80
2023/03/06 11:14:04;;;;;;;;;;;;;;;;;;10449565;28;19917;-80
2023/03/06 11:19:26;;;;;;;;;;;;;;;;;;10460120;28;19913;-80
2023/03/06 11:24:46;;;;;;;;;;;;;;;;;;10480423;28;19909;-80
2023/03/06 11:30:07;;;;;;;;;;;;;;;;;;10473092;28;19912;-80
2023/03/06 11:35:28;;;;;;;;;;;;;;;;;;10466548;28;19917;-79
2023/03/06 11:40:48;;;;;;;;;;;;;;;;;;10466060;28;19947;-79
2023/03/06 11:46:09;;;;;;;;;;;;;;;;;;10457397;28;19961;-79
2023/03/06 11:51:30;;;;;;;;;;;;;;;;;;10462742;28;20100;-80
2023/03/06 11:56:51;;;;;;;;;;;;;;;;;;10447424;28;20015;-80
2023/03/06 12:02:11;;;;;;;;;;;;;;;;;;10457430;28;20426;-77
2023/03/06 12:07:32;;;;;;;;;;;;;;;;;;10455569;28;19928;-77
2023/03/06 12:12:53;;;;;;;;;;;;;;;;;;10475475;28;19923;-77
2023/03/06 12:18:13;;;;;;;;;;;;;;;;;;10482153;28;19936;-77
2023/03/06 12:23:34;;;;;;;;;;;;;;;;;;10470785;28;19913;-77
2023/03/06 12:28:55;;;;;;;;;;;;;;;;;;10476214;28;19913;-77
2023/03/06 12:34:15;;;;;;;;;;;;;;;;;;10462600;28;19920;-77
2023/03/06 12:39:38;;;;;;;;;;;;;;;;;;10466476;28;20390;-77
2023/03/06 12:44:59;;;;;;;;;;;;;;;;;;10460721;28;19924;-77
2023/03/06 12:50:20;;;;;;;;;;;;;;;;;;10460023;28;20356;-77
2023/03/06 12:55:40;;;;;;;;;;;;;;;;;;10460266;28;19927;-77
2023/03/06 13:01:01;;;;;;;;;;;;;;;;;;10454047;28;19963;-77
2023/03/06 13:06:22;;;;;;;;;;;;;;;;;;10462907;28;20539;-78
2023/03/06 13:11:43;;;;;;;;;;;;;;;;;;10460617;28;19924;-77
2023/03/06 13:17:03;;;;;;;;;;;;;;;;;;10453030;28;19916;-77
2023/03/06 13:22:25;;;;;;;;;;;;;;;;;;10460448;28;19921;-77
2023/03/06 13:27:45;;;;;;;;;;;;;;;;;;10468943;28;19920;-77
2023/03/06 13:33:06;;;;;;;;;;;;;;;;;;10461584;28;19912;-77
2023/03/06 13:38:27;;;;;;;;;;;;;;;;;;10456585;28;20372;-78
2023/03/06 13:43:47;;;;;;;;;;;;;;;;;;10461613;28;19913;-78
2023/03/06 13:49:09;;;;;;;;;;;;;;;;;;10462392;28;19927;-77
2023/03/06 13:54:30;;;;;;;;;;;;;;;;;;10460619;28;19932;-78
2023/03/06 13:59:50;;;;;;;;;;;;;;;;;;10457289;28;19944;-77
2023/03/06 14:05:11;;;;;;;;;;;;;;;;;;10463590;28;19927;-76
2023/03/06 14:10:32;;;;;;;;;;;;;;;;;;10462177;28;19932;-77
2023/03/06 14:15:52;;;;;;;;;;;;;;;;;;10444799;28;19924;-77
2023/03/06 14:21:13;;;;;;;;;;;;;;;;;;10457581;28;19916;-77
2023/03/06 14:26:34;;;;;;;;;;;;;;;;;;10456308;28;19912;-77
2023/03/06 14:31:54;;;;;;;;;;;;;;;;;;10435984;28;19921;-77
2023/03/06 14:37:15;;;;;;;;;;;;;;;;;;10447908;28;19917;-78
2023/03/06 14:42:36;;;;;;;;;;;;;;;;;;10469221;28;19913;-78
2023/03/06 14:47:57;;;;;;;;;;;;;;;;;;10462530;28;20326;-77
2023/03/06 14:53:17;;;;;;;;;;;;;;;;;;10463269;28;19931;-77
2023/03/06 14:58:38;;;;;;;;;;;;;;;;;;10461748;28;19920;-77
2023/03/06 15:03:59;;;;;;;;;;;;;;;;;;10445735;28;19920;-77
2023/03/06 15:09:19;;;;;;;;;;;;;;;;;;10456733;28;20279;-77
2023/03/06 15:14:40;;;;;;;;;;;;;;;;;;10445144;28;19917;-77
2023/03/06 15:20:01;;;;;;;;;;;;;;;;;;10431692;28;19927;-77
2023/03/06 15:25:22;;;;;;;;;;;;;;;;;;10460757;28;19920;-77
2023/03/06 15:30:42;;;;;;;;;;;;;;;;;;10449441;28;19917;-77
2023/03/06 15:36:03;;;;;;;;;;;;;;;;;;10456195;28;20241;-77
2023/03/06 15:41:24;;;;;;;;;;;;;;;;;;10455687;28;19924;-77
2023/03/06 15:46:44;;;;;;;;;;;;;;;;;;10453743;28;19912;-77
2023/03/06 15:52:05;;;;;;;;;;;;;;;;;;10452202;28;20372;-76
2023/03/06 15:57:27;;;;;;;;;;;;;;;;;;10463882;28;19925;-76
2023/03/06 16:02:48;;;;;;;;;;;;;;;;;;10456369;28;19920;-76
2023/03/06 16:08:13;;;;;;;;;;;;;;;;;;10459815;28;19920;-77
2023/03/06 16:13:34;;;;;;;;;;;;;;;;;;10452245;28;19917;-76
2023/03/06 16:18:55;;;;;;;;;;;;;;;;;;10453086;28;19923;-76
2023/03/06 16:24:16;;;;;;;;;;;;;;;;;;10457689;28;19920;-77
2023/03/06 16:29:37;;;;;;;;;;;;;;;;;;10441291;28;19921;-76
2023/03/06 16:34:57;;;;;;;;;;;;;;;;;;10455039;28;19920;-74
2023/03/06 16:40:18;;;;;;;;;;;;;;;;;;10463727;28;19919;-74
2023/03/06 16:45:39;;;;;;;;;;;;;;;;;;10455106;28;19917;-74
2023/03/06 16:50:59;;;;;;;;;;;;;;;;;;10454365;28;20104;-74
2023/03/06 16:56:20;;;;;;;;;;;;;;;;;;10464613;28;20260;-74
2023/03/06 17:01:44;;;;;;;;;;;;;;;;;;10444421;28;19920;-74
2023/03/06 17:07:05;;;;;;;;;;;;;;;;;;10454253;28;20268;-74
2023/03/06 17:12:25;;;;;;;;;;;;;;;;;;10458746;28;19913;-74
2023/03/06 17:17:46;;;;;;;;;;;;;;;;;;10455139;28;19923;-74
2023/03/06 17:23:07;;;;;;;;;;;;;;;;;;10462584;28;20303;-74
2023/03/06 17:28:27;;;;;;;;;;;;;;;;;;10453599;28;19917;-77
2023/03/06 17:33:48;;;;;;;;;;;;;;;;;;10444238;28;19923;-76
2023/03/06 17:39:10;;;;;;;;;;;;;;;;;;10462432;28;19929;-76
2023/03/06 17:44:30;;;;;;;;;;;;;;;;;;10466537;28;20018;-76
2023/03/06 17:49:51;;;;;;;;;;;;;;;;;;10449529;28;20311;-77
2023/03/06 17:55:12;;;;;;;;;;;;;;;;;;10450323;28;19927;-75
2023/03/06 18:00:32;;;;;;;;;;;;;;;;;;10452382;28;20023;-74
2023/03/06 18:05:53;;;;;;;;;;;;;;;;;;10442359;28;20405;-75
2023/03/06 18:11:14;;;;;;;;;;;;;;;;;;10448179;28;19920;-75
2023/03/06 18:16:34;;;;;;;;;;;;;;;;;;10444665;28;19927;-75
2023/03/06 18:21:55;;;;;;;;;;;;;;;;;;10452073;28;19913;-74
2023/03/06 18:27:16;;;;;;;;;;;;;;;;;;10455763;28;19917;-75
2023/03/06 18:32:37;;;;;;;;;;;;;;;;;;10442668;28;19924;-75
2023/03/06 18:37:57;;;;;;;;;;;;;;;;;;10442774;28;21562;-73
2023/03/06 18:43:18;;;;;;;;;;;;;;;;;;10453627;28;19915;-73
2023/03/06 18:48:39;;;;;;;;;;;;;;;;;;10444891;28;19913;-74
2023/03/06 18:53:59;;;;;;;;;;;;;;;;;;10453372;28;19964;-74
2023/03/06 18:59:20;;;;;;;;;;;;;;;;;;10455293;28;19931;-69
2023/03/06 19:04:41;;;;;;;;;;;;;;;;;;10457501;28;20360;-73
2023/03/06 19:10:01;;;;;;;;;;;;;;;;;;10453779;28;19924;-74
2023/03/06 19:15:22;;;;;;;;;;;;;;;;;;10455776;28;19924;-73
2023/03/06 19:20:43;;;;;;;;;;;;;;;;;;10454633;28;19927;-74
2023/03/06 19:26:04;;;;;;;;;;;;;;;;;;10440155;28;19932;-73
2023/03/06 19:31:24;;;;;;;;;;;;;;;;;;10440254;28;19917;-71
2023/03/06 19:36:45;;;;;;;;;;;;;;;;;;10459844;28;19928;-72
2023/03/06 19:42:06;;;;;;;;;;;;;;;;;;10449497;28;19945;-72
2023/03/06 19:47:27;;;;;;;;;;;;;;;;;;10446333;28;20343;-72
2023/03/06 19:52:47;;;;;;;;;;;;;;;;;;10445436;28;19921;-71
2023/03/06 19:58:09;;;;;;;;;;;;;;;;;;10432457;28;19963;-72
2023/03/06 20:03:30;;;;;;;;;;;;;;;;;;10438050;28;19928;-72
2023/03/06 20:08:51;;;;;;;;;;;;;;;;;;10452471;28;19955;-72
2023/03/06 20:14:12;;;;;;;;;;;;;;;;;;10447035;28;19962;-73
2023/03/06 20:19:32;;;;;;;;;;;;;;;;;;10438205;28;19925;-73
2023/03/06 20:24:53;;;;;;;;;;;;;;;;;;10460861;28;20264;-73
2023/03/06 20:30:14;;;;;;;;;;;;;;;;;;10466685;28;19913;-72
2023/03/06 20:35:34;;;;;;;;;;;;;;;;;;10451673;28;19928;-73
2023/03/06 20:40:56;;;;;;;;;;;;;;;;;;10441024;28;19999;-73
2023/03/06 20:46:17;;;;;;;;;;;;;;;;;;10451060;28;19917;-73
2023/03/06 20:51:38;;;;;;;;;;;;;;;;;;10446064;28;19931;-73
2023/03/06 20:56:58;;;;;;;;;;;;;;;;;;10449802;28;19963;-73
2023/03/06 21:02:19;;;;;;;;;;;;;;;;;;10438067;28;19982;-73
2023/03/06 21:07:40;;;;;;;;;;;;;;;;;;10431699;28;19995;-73
2023/03/06 21:13:00;;;;;;;;;;;;;;;;;;10432388;28;19917;-72
2023/03/06 21:18:21;;;;;;;;;;;;;;;;;;10433577;28;19920;-73
2023/03/06 21:23:42;;;;;;;;;;;;;;;;;;10443997;28;20363;-73
2023/03/06 21:29:03;;;;;;;;;;;;;;;;;;10443630;28;19925;-74
2023/03/06 21:34:23;;;;;;;;;;;;;;;;;;10449653;28;19917;-74
2023/03/06 21:39:44;;;;;;;;;;;;;;;;;;10461723;28;19917;-73
2023/03/06 21:45:06;;;;;;;;;;;;;;;;;;10450430;28;20411;-73
2023/03/06 21:50:27;;;;;;;;;;;;;;;;;;10445697;28;20060;-73
2023/03/06 21:55:47;;;;;;;;;;;;;;;;;;10446325;28;19916;-74
2023/03/06 22:01:08;;;;;;;;;;;;;;;;;;10439576;28;19913;-73
2023/03/06 22:06:29;;;;;;;;;;;;;;;;;;10466776;28;20346;-74
2023/03/06 22:11:50;;;;;;;;;;;;;;;;;;10451201;28;19935;-74
2023/03/06 22:17:10;;;;;;;;;;;;;;;;;;10454749;28;20361;-72
2023/03/06 22:22:31;;;;;;;;;;;;;;;;;;10445308;28;19920;-74
2023/03/06 22:27:52;;;;;;;;;;;;;;;;;;10448020;28;19925;-74
2023/03/06 22:33:12;;;;;;;;;;;;;;;;;;10460262;28;20368;-74
2023/03/06 22:38:33;;;;;;;;;;;;;;;;;;10454110;28;19916;-74
2023/03/06 22:43:54;;;;;;;;;;;;;;;;;;10458794;28;19951;-74
2023/03/06 22:49:15;;;;;;;;;;;;;;;;;;10453043;28;19924;-74
2023/03/06 22:54:36;;;;;;;;;;;;;;;;;;10459440;28;19927;-73
2023/03/06 22:59:57;;;;;;;;;;;;;;;;;;10452833;28;19917;-74
2023/03/06 23:05:17;;;;;;;;;;;;;;;;;;10452502;28;20292;-73
2023/03/06 23:10:38;;;;;;;;;;;;;;;;;;10448218;28;20537;-74
2023/03/06 23:15:59;;;;;;;;;;;;;;;;;;10460890;28;19951;-74
2023/03/06 23:21:19;;;;;;;;;;;;;;;;;;10453175;28;20368;-74
2023/03/06 23:26:40;;;;;;;;;;;;;;;;;;10455104;28;19920;-74
2023/03/06 23:32:01;;;;;;;;;;;;;;;;;;10443997;28;19913;-73
2023/03/06 23:37:21;;;;;;;;;;;;;;;;;;10468643;28;19916;-74
2023/03/06 23:42:42;;;;;;;;;;;;;;;;;;10469999;28;20387;-74
2023/03/06 23:48:03;;;;;;;;;;;;;;;;;;10451030;28;19921;-74
2023/03/06 23:53:24;;;;;;;;;;;;;;;;;;10454401;28;19921;-74
2023/03/06 23:58:44;;;;;;;;;;;;;;;;;;10448433;28;19921;-73
